createdAt,value
2022-08-25T00:00:21.980Z,25.50
2022-08-25T00:02:56.093Z,25.50
2022-08-25T00:05:32.121Z,25.50
2022-08-25T00:08:03.573Z,25.50
2022-08-25T00:10:32.091Z,25.50
2022-08-25T00:13:00.354Z,25.50
2022-08-25T00:15:28.972Z,25.50
2022-08-25T00:17:57.397Z,25.50
2022-08-25T00:20:26.465Z,25.60
2022-08-25T00:22:56.123Z,25.50
2022-08-25T00:25:26.929Z,25.50
2022-08-25T00:27:55.409Z,25.60
2022-08-25T00:30:23.961Z,25.50
2022-08-25T00:32:55.224Z,25.50
2022-08-25T00:35:27.081Z,25.60
2022-08-25T00:37:55.863Z,25.50
2022-08-25T00:40:28.910Z,25.40
2022-08-25T00:42:57.545Z,25.40
2022-08-25T00:45:26.714Z,25.50
2022-08-25T00:47:56.678Z,25.40
2022-08-25T00:50:30.404Z,25.50
2022-08-25T00:53:03.175Z,25.40
2022-08-25T00:55:38.085Z,25.40
2022-08-25T00:58:14.057Z,25.40
2022-08-25T01:00:47.610Z,25.40
2022-08-25T01:03:18.327Z,25.40
2022-08-25T01:05:47.927Z,25.40
2022-08-25T01:08:21.280Z,25.30
2022-08-25T01:10:51.966Z,25.40
2022-08-25T01:13:25.204Z,25.30
2022-08-25T01:15:57.739Z,25.30
2022-08-25T01:18:28.695Z,25.30
2022-08-25T01:21:00.593Z,25.30
2022-08-25T01:23:29.035Z,25.30
2022-08-25T01:26:05.157Z,25.30
2022-08-25T01:28:33.925Z,25.30
2022-08-25T01:31:02.198Z,25.30
2022-08-25T01:33:30.701Z,25.30
2022-08-25T01:36:00.361Z,25.30
2022-08-25T01:38:28.623Z,25.30
2022-08-25T01:40:56.868Z,25.30
2022-08-25T01:43:38.117Z,25.30
2022-08-25T01:46:06.811Z,25.40
2022-08-25T01:48:35.738Z,25.40
2022-08-25T01:51:05.620Z,25.40
2022-08-25T01:53:34.401Z,25.40
2022-08-25T01:56:11.582Z,25.40
2022-08-25T01:58:44.248Z,25.40
2022-08-25T02:01:18.680Z,25.40
2022-08-25T02:03:51.277Z,25.40
2022-08-25T02:06:28.670Z,25.40
2022-08-25T02:09:01.360Z,25.40
2022-08-25T02:11:30.411Z,25.30
2022-08-25T02:13:59.281Z,25.30
2022-08-25T02:16:31.847Z,25.30
2022-08-25T02:19:00.934Z,25.30
2022-08-25T02:21:30.994Z,25.20
2022-08-25T02:23:59.539Z,25.10
2022-08-25T02:26:29.141Z,25.20
2022-08-25T02:28:57.606Z,25.20
2022-08-25T02:31:27.170Z,25.20
2022-08-25T02:33:56.241Z,25.20
2022-08-25T02:36:25.169Z,25.20
2022-08-25T02:38:55.418Z,25.20
2022-08-25T02:41:31.422Z,25.20
2022-08-25T02:44:01.076Z,25.10
2022-08-25T02:46:29.615Z,25.20
2022-08-25T02:48:59.292Z,25.20
2022-08-25T02:51:30.129Z,25.20
2022-08-25T02:54:02.469Z,25.20
2022-08-25T02:56:32.681Z,25.20
2022-08-25T02:59:01.908Z,25.20
2022-08-25T03:01:30.684Z,25.20
2022-08-25T03:03:59.629Z,25.10
2022-08-25T03:06:28.621Z,25.20
2022-08-25T03:08:58.986Z,25.20
2022-08-25T03:11:27.232Z,25.10
2022-08-25T03:13:56.421Z,25.20
2022-08-25T03:16:27.914Z,25.20
2022-08-25T03:18:57.536Z,25.20
2022-08-25T03:21:26.863Z,25.30
2022-08-25T03:23:55.120Z,25.30
2022-08-25T03:26:42.754Z,25.20
2022-08-25T03:29:11.783Z,25.20
2022-08-25T03:31:40.829Z,25.20
2022-08-25T03:34:09.706Z,25.20
2022-08-25T03:36:38.239Z,25.20
2022-08-25T03:39:08.523Z,25.20
2022-08-25T03:41:38.836Z,25.20
2022-08-25T03:44:10.155Z,25.10
2022-08-25T03:46:42.643Z,25.10
2022-08-25T03:49:14.029Z,25.00
2022-08-25T03:51:46.069Z,25.10
2022-08-25T03:54:16.096Z,25.10
2022-08-25T03:56:46.859Z,25.10
2022-08-25T03:59:15.493Z,25.10
2022-08-25T04:01:46.116Z,25.10
2022-08-25T04:04:16.762Z,25.10
2022-08-25T04:06:45.780Z,25.10
2022-08-25T04:09:14.838Z,25.10
2022-08-25T04:11:43.248Z,25.10
2022-08-25T04:14:16.645Z,25.10
2022-08-25T04:16:46.637Z,25.00
2022-08-25T04:19:15.621Z,25.00
2022-08-25T04:21:44.328Z,25.00
2022-08-25T04:24:14.021Z,25.00
2022-08-25T04:26:46.157Z,25.00
2022-08-25T04:29:18.752Z,25.00
2022-08-25T04:31:50.217Z,25.00
2022-08-25T04:34:29.632Z,25.00
2022-08-25T04:36:58.942Z,25.10
2022-08-25T04:39:27.262Z,25.10
2022-08-25T04:41:55.688Z,25.10
2022-08-25T04:44:25.442Z,25.10
2022-08-25T04:46:53.994Z,25.10
2022-08-25T04:49:22.286Z,25.10
2022-08-25T04:51:50.553Z,25.00
2022-08-25T04:54:21.747Z,25.00
2022-08-25T04:56:54.640Z,25.10
2022-08-25T04:59:30.180Z,25.00
2022-08-25T05:02:02.322Z,25.00
2022-08-25T05:04:32.593Z,24.90
2022-08-25T05:07:01.356Z,24.90
2022-08-25T05:09:32.301Z,24.80
2022-08-25T05:12:02.753Z,24.80
2022-08-25T05:14:33.690Z,24.80
2022-08-25T05:17:02.582Z,24.80
2022-08-25T05:19:31.019Z,24.80
2022-08-25T05:21:59.437Z,24.70
2022-08-25T05:24:28.259Z,24.70
2022-08-25T05:26:56.908Z,24.60
2022-08-25T05:29:25.758Z,24.70
2022-08-25T05:31:55.519Z,24.80
2022-08-25T05:34:24.827Z,24.80
2022-08-25T05:36:53.048Z,24.90
2022-08-25T05:39:21.306Z,25.00
2022-08-25T05:41:49.646Z,25.00
2022-08-25T05:44:21.200Z,25.10
2022-08-25T05:46:51.174Z,25.20
2022-08-25T05:49:21.053Z,25.20
2022-08-25T05:51:49.526Z,25.30
2022-08-25T05:54:17.877Z,25.30
2022-08-25T05:56:46.562Z,25.40
2022-08-25T05:59:14.823Z,25.30
2022-08-25T06:02:01.152Z,25.40
2022-08-25T06:04:30.817Z,25.40
2022-08-25T06:06:59.098Z,25.50
2022-08-25T06:09:27.634Z,25.50
2022-08-25T06:11:56.104Z,25.50
2022-08-25T06:14:25.355Z,25.50
2022-08-25T06:16:54.078Z,25.60
2022-08-25T06:19:23.565Z,25.60
2022-08-25T06:21:56.771Z,25.60
2022-08-25T06:24:26.213Z,25.60
2022-08-25T06:26:56.207Z,25.60
2022-08-25T06:29:24.808Z,25.60
2022-08-25T06:31:53.249Z,25.60
2022-08-25T06:34:23.990Z,25.60
2022-08-25T06:36:53.023Z,25.60
2022-08-25T06:39:23.985Z,25.50
2022-08-25T06:41:54.066Z,25.50
2022-08-25T06:44:23.333Z,25.50
2022-08-25T06:46:51.994Z,25.50
2022-08-25T06:49:20.621Z,25.50
2022-08-25T06:51:49.557Z,25.50
2022-08-25T06:54:18.075Z,25.50
2022-08-25T06:56:49.615Z,25.50
2022-08-25T06:59:18.843Z,25.50
2022-08-25T07:01:49.661Z,25.50
2022-08-25T07:04:18.611Z,25.50
2022-08-25T07:06:47.428Z,25.50
2022-08-25T07:09:15.842Z,25.50
2022-08-25T07:11:45.872Z,25.50
2022-08-25T07:14:18.692Z,25.40
2022-08-25T07:16:50.260Z,25.40
2022-08-25T07:19:20.920Z,25.40
2022-08-25T07:21:54.315Z,25.50
2022-08-25T07:24:24.115Z,25.50
2022-08-25T07:26:52.862Z,25.50
2022-08-25T07:29:32.392Z,25.60
2022-08-25T07:32:02.639Z,25.60
2022-08-25T07:34:52.001Z,25.60
2022-08-25T07:37:47.884Z,25.60
2022-08-25T07:40:15.113Z,25.60
2022-08-25T07:42:43.788Z,25.60
2022-08-25T07:45:17.428Z,25.60
2022-08-25T07:47:52.121Z,25.60
2022-08-25T07:50:21.493Z,25.60
2022-08-25T07:52:55.147Z,25.60
2022-08-25T07:55:24.925Z,25.60
2022-08-25T07:57:57.068Z,25.60
2022-08-25T08:00:30.215Z,25.60
2022-08-25T08:02:59.393Z,25.60
2022-08-25T08:05:29.064Z,25.60
2022-08-25T08:07:58.702Z,25.60
2022-08-25T08:13:18.650Z,25.60
2022-08-25T08:15:49.074Z,25.60
2022-08-25T08:18:18.385Z,25.60
2022-08-25T08:20:48.556Z,25.60
2022-08-25T08:23:18.166Z,25.60
2022-08-25T08:25:46.663Z,25.60
2022-08-25T08:28:15.337Z,25.60
2022-08-25T08:30:53.343Z,25.60
2022-08-25T08:33:25.680Z,25.60
2022-08-25T08:36:05.228Z,25.60
2022-08-25T08:38:34.777Z,25.50
2022-08-25T08:41:40.219Z,25.60
2022-08-25T08:44:29.087Z,25.60
2022-08-25T08:47:09.652Z,25.60
2022-08-25T08:49:50.726Z,25.60
2022-08-25T08:52:25.603Z,25.70
2022-08-25T08:55:06.560Z,25.70
2022-08-25T08:57:44.623Z,25.70
2022-08-25T09:00:14.815Z,25.70
2022-08-25T09:02:52.332Z,25.80
2022-08-25T09:05:27.286Z,25.80
2022-08-25T09:07:59.936Z,25.80
2022-08-25T09:10:49.630Z,25.80
2022-08-25T09:13:39.060Z,25.80
2022-08-25T09:16:34.755Z,25.80
2022-08-25T09:19:21.436Z,25.90
2022-08-25T09:22:01.854Z,25.90
2022-08-25T09:24:48.538Z,25.90
2022-08-25T09:27:26.352Z,25.90
2022-08-25T09:30:05.458Z,25.90
2022-08-25T09:32:40.613Z,25.90
2022-08-25T09:35:14.989Z,25.90
2022-08-25T09:37:45.251Z,25.90
2022-08-25T09:40:13.788Z,25.90
2022-08-25T09:42:57.693Z,25.90
2022-08-25T09:45:43.549Z,25.90
2022-08-25T09:48:40.652Z,25.90
2022-08-25T09:51:21.006Z,25.90
2022-08-25T09:53:58.672Z,26.00
2022-08-25T09:56:31.273Z,26.00
2022-08-25T09:59:34.236Z,26.00
2022-08-25T10:02:07.451Z,26.00
2022-08-25T10:04:38.273Z,26.00
2022-08-25T10:07:26.865Z,26.00
2022-08-25T10:10:01.082Z,26.00
2022-08-25T10:12:36.851Z,26.00
2022-08-25T10:15:29.784Z,26.00
2022-08-25T10:18:16.297Z,26.10
2022-08-25T10:20:46.659Z,26.10
2022-08-25T10:23:16.363Z,26.10
2022-08-25T10:25:56.746Z,26.10
2022-08-25T10:28:39.005Z,26.20
2022-08-25T10:31:19.934Z,26.20
2022-08-25T10:34:08.314Z,26.20
2022-08-25T10:36:48.898Z,26.20
2022-08-25T10:39:36.230Z,26.20
2022-08-25T10:42:25.828Z,26.10
2022-08-25T10:45:34.439Z,26.10
2022-08-25T10:48:40.237Z,26.10
2022-08-25T10:51:31.158Z,26.10
2022-08-25T10:54:09.158Z,26.10
2022-08-25T10:56:42.377Z,26.10
2022-08-25T10:59:58.621Z,26.10
2022-08-25T11:03:05.922Z,26.10
2022-08-25T11:05:41.095Z,26.00
2022-08-25T11:08:16.747Z,26.00
2022-08-25T11:10:50.682Z,26.00
2022-08-25T11:13:42.692Z,26.00
2022-08-25T11:16:18.825Z,26.00
2022-08-25T11:18:57.082Z,26.00
2022-08-25T11:21:35.971Z,26.00
2022-08-25T11:24:20.016Z,26.00
2022-08-25T11:26:57.209Z,26.00
2022-08-25T11:29:32.719Z,26.00
2022-08-25T11:32:03.022Z,26.00
2022-08-25T11:34:34.828Z,26.00
2022-08-25T11:37:13.711Z,26.00
2022-08-25T11:40:07.135Z,26.00
2022-08-25T11:42:55.955Z,25.90
2022-08-25T11:45:43.748Z,25.90
2022-08-25T11:48:29.422Z,25.90
2022-08-25T11:51:03.019Z,25.90
2022-08-25T11:53:36.043Z,26.00
2022-08-25T11:56:09.954Z,26.00
2022-08-25T11:58:56.224Z,26.00
2022-08-25T12:02:29.018Z,26.00
2022-08-25T12:04:58.784Z,26.00
2022-08-25T12:07:30.186Z,26.00
2022-08-25T12:10:20.876Z,26.00
2022-08-25T12:13:04.633Z,26.00
2022-08-25T12:15:51.680Z,26.10
2022-08-25T12:18:46.320Z,26.10
2022-08-25T12:21:33.291Z,26.10
2022-08-25T12:24:16.742Z,26.10
2022-08-25T12:26:58.507Z,26.10
2022-08-25T12:29:40.843Z,26.10
2022-08-25T12:32:31.003Z,26.10
2022-08-25T12:35:29.601Z,26.20
2022-08-25T12:38:05.881Z,26.20
2022-08-25T12:40:39.756Z,26.20
2022-08-25T12:43:13.787Z,26.20
2022-08-25T12:45:50.911Z,26.20
2022-08-25T12:48:57.182Z,26.20
2022-08-25T12:51:28.382Z,26.10
2022-08-25T12:54:16.093Z,26.00
2022-08-25T12:56:53.978Z,26.10
2022-08-25T12:59:25.268Z,26.20
2022-08-25T13:02:31.636Z,26.30
2022-08-25T13:05:33.546Z,26.40
2022-08-25T13:08:33.992Z,26.40
2022-08-25T13:11:14.697Z,26.40
2022-08-25T13:13:57.078Z,26.40
2022-08-25T13:16:29.626Z,26.50
2022-08-25T13:19:01.522Z,26.60
2022-08-25T13:21:35.151Z,26.70
2022-08-25T13:24:12.789Z,26.70
2022-08-25T13:26:48.269Z,26.80
2022-08-25T13:29:22.561Z,26.90
2022-08-25T13:31:58.277Z,26.90
2022-08-25T13:34:34.791Z,26.90
2022-08-25T13:37:26.023Z,26.90
2022-08-25T13:40:10.966Z,26.90
2022-08-25T13:42:43.723Z,26.90
2022-08-25T13:45:18.962Z,26.90
2022-08-25T13:47:50.214Z,26.90
2022-08-25T13:50:34.335Z,26.90
2022-08-25T13:53:07.814Z,26.90
2022-08-25T13:55:56.950Z,26.90
2022-08-25T13:58:39.122Z,26.90
2022-08-25T14:01:22.765Z,26.90
2022-08-25T14:04:27.311Z,26.80
2022-08-25T14:07:25.398Z,26.80
2022-08-25T14:09:56.883Z,26.80
2022-08-25T14:12:41.335Z,26.80
2022-08-25T14:15:29.471Z,26.70
2022-08-25T14:18:08.044Z,26.70
2022-08-25T14:20:38.874Z,26.70
2022-08-25T14:23:16.242Z,26.70
2022-08-25T14:25:47.922Z,26.80
2022-08-25T14:28:20.229Z,26.80
2022-08-25T14:30:54.138Z,26.80
2022-08-25T14:33:32.906Z,26.80
2022-08-25T14:36:04.831Z,26.80
2022-08-25T14:38:35.249Z,26.80
2022-08-25T14:43:32.425Z,26.80
2022-08-25T14:46:11.094Z,26.90
2022-08-25T14:48:47.226Z,26.90
2022-08-25T14:51:17.938Z,26.90
2022-08-25T14:53:46.468Z,26.90
2022-08-25T14:56:14.936Z,27.00
2022-08-25T14:58:50.808Z,27.10
2022-08-25T15:01:28.548Z,27.20
2022-08-25T15:04:04.487Z,27.20
2022-08-25T15:06:34.535Z,27.20
2022-08-25T15:09:08.068Z,27.10
2022-08-25T15:11:38.754Z,27.10
2022-08-25T15:14:11.074Z,27.10
2022-08-25T15:16:46.187Z,27.20
2022-08-25T15:19:17.411Z,27.20
2022-08-25T15:21:47.804Z,27.30
2022-08-25T15:24:18.043Z,27.40
2022-08-25T15:29:27.376Z,27.50
2022-08-25T15:31:57.413Z,27.50
2022-08-25T15:34:25.906Z,27.50
2022-08-25T15:36:54.683Z,27.40
2022-08-25T15:39:22.949Z,27.40
2022-08-25T15:41:52.550Z,27.40
2022-08-25T15:44:24.141Z,27.30
2022-08-25T15:46:56.253Z,27.30
2022-08-25T15:49:24.876Z,27.40
2022-08-25T15:51:54.648Z,27.40
2022-08-25T15:54:26.856Z,27.30
2022-08-25T15:56:56.898Z,27.30
2022-08-25T15:59:26.698Z,27.40
2022-08-25T16:01:57.667Z,27.30
2022-08-25T16:04:28.450Z,27.40
2022-08-25T16:06:57.070Z,27.40
2022-08-25T16:09:27.161Z,27.40
2022-08-25T16:11:56.797Z,27.30
2022-08-25T16:14:27.992Z,27.40
2022-08-25T16:16:59.640Z,27.30
2022-08-25T16:19:28.740Z,27.30
2022-08-25T16:21:57.730Z,27.30
2022-08-25T16:24:26.846Z,27.20
2022-08-25T16:27:00.247Z,27.20
2022-08-25T16:29:35.845Z,27.20
2022-08-25T16:32:06.978Z,27.10
2022-08-25T16:34:35.684Z,27.10
2022-08-25T16:37:04.751Z,27.10
2022-08-25T16:39:34.960Z,27.00
2022-08-25T16:42:03.251Z,27.00
2022-08-25T16:44:34.374Z,27.00
2022-08-25T16:47:02.665Z,27.00
2022-08-25T16:49:32.946Z,27.00
2022-08-25T16:52:02.584Z,27.00
2022-08-25T16:54:52.327Z,27.00
2022-08-25T16:57:23.074Z,27.00
2022-08-25T16:59:52.644Z,27.00
2022-08-25T17:02:21.763Z,27.00
2022-08-25T17:04:51.547Z,27.00
2022-08-25T17:07:23.857Z,27.00
2022-08-25T17:09:53.390Z,27.00
2022-08-25T17:12:21.769Z,27.00
2022-08-25T17:14:50.338Z,27.00
2022-08-25T17:17:19.076Z,27.00
2022-08-25T17:19:51.781Z,27.00
2022-08-25T17:22:23.325Z,27.00
2022-08-25T17:24:53.421Z,27.00
2022-08-25T17:27:29.049Z,27.00
2022-08-25T17:29:59.325Z,27.00
2022-08-25T17:32:28.965Z,26.90
2022-08-25T17:34:59.602Z,27.00
2022-08-25T17:37:29.649Z,26.90
2022-08-25T17:40:03.242Z,26.90
2022-08-25T17:42:32.307Z,26.90
2022-08-25T17:45:00.754Z,26.90
2022-08-25T17:47:29.225Z,26.90
2022-08-25T17:49:58.111Z,26.90
2022-08-25T17:52:26.527Z,26.90
2022-08-25T17:54:56.694Z,26.90
2022-08-25T17:57:27.734Z,26.90
2022-08-25T17:59:59.705Z,26.90
2022-08-25T18:02:28.347Z,26.90
2022-08-25T18:04:57.038Z,26.90
2022-08-25T18:07:28.241Z,26.90
2022-08-25T18:09:58.307Z,26.90
2022-08-25T18:12:27.465Z,26.80
2022-08-25T18:14:56.001Z,26.70
2022-08-25T18:17:28.145Z,26.70
2022-08-25T18:19:57.831Z,26.80
2022-08-25T18:22:27.253Z,26.70
2022-08-25T18:24:59.888Z,26.80
2022-08-25T18:27:29.120Z,26.70
2022-08-25T18:29:57.715Z,26.80
2022-08-25T18:32:26.254Z,26.80
2022-08-25T18:34:56.599Z,26.80
2022-08-25T18:37:43.263Z,26.80
2022-08-25T18:40:27.136Z,26.80
2022-08-25T18:42:58.264Z,26.80
2022-08-25T18:45:31.365Z,26.80
2022-08-25T18:48:00.448Z,26.80
2022-08-25T18:50:33.715Z,26.70
2022-08-25T18:53:02.855Z,26.80
2022-08-25T18:55:37.306Z,26.70
2022-08-25T18:58:07.634Z,26.70
2022-08-25T19:00:41.834Z,26.70
2022-08-25T19:03:12.000Z,26.70
2022-08-25T19:05:49.358Z,26.70
2022-08-25T19:08:27.146Z,26.70
2022-08-25T19:10:57.661Z,26.80
2022-08-25T19:13:26.610Z,26.80
2022-08-25T19:15:54.898Z,26.80
2022-08-25T19:18:25.951Z,26.80
2022-08-25T19:20:58.021Z,26.80
2022-08-25T19:23:27.596Z,26.90
2022-08-25T19:25:57.408Z,26.90
2022-08-25T19:28:27.429Z,26.90
2022-08-25T19:30:56.237Z,26.90
2022-08-25T19:33:42.827Z,26.90
2022-08-25T19:36:13.536Z,26.90
2022-08-25T19:38:44.117Z,26.90
2022-08-25T19:41:15.229Z,26.80
2022-08-25T19:43:56.665Z,26.80
2022-08-25T19:46:33.223Z,26.80
2022-08-25T19:49:08.484Z,26.80
2022-08-25T19:51:39.950Z,26.80
2022-08-25T19:54:10.983Z,26.90
2022-08-25T19:56:43.614Z,26.80
2022-08-25T19:59:26.262Z,26.80
2022-08-25T20:01:55.216Z,26.80
2022-08-25T20:04:24.666Z,26.80
2022-08-25T20:06:55.455Z,26.80
2022-08-25T20:09:38.850Z,26.80
2022-08-25T20:12:12.198Z,26.80
2022-08-25T20:14:41.442Z,26.70
2022-08-25T20:17:23.077Z,26.70
2022-08-25T20:19:55.846Z,26.70
2022-08-25T20:22:27.130Z,26.70
2022-08-25T20:24:58.822Z,26.70
2022-08-25T20:27:34.048Z,26.70
2022-08-25T20:30:03.407Z,26.70
2022-08-25T20:32:33.825Z,26.70
2022-08-25T20:35:03.068Z,26.70
2022-08-25T20:37:33.954Z,26.70
2022-08-25T20:40:03.465Z,26.70
2022-08-25T20:42:33.265Z,26.70
2022-08-25T20:45:02.106Z,26.70
2022-08-25T20:47:30.443Z,26.80
2022-08-25T20:50:03.358Z,26.80
2022-08-25T20:52:36.341Z,26.80
2022-08-25T20:55:09.309Z,26.80
2022-08-25T20:57:39.146Z,26.70
2022-08-25T21:00:09.566Z,26.80
2022-08-25T21:02:38.055Z,26.70
2022-08-25T21:05:08.808Z,26.70
2022-08-25T21:07:37.082Z,26.70
2022-08-25T21:10:10.351Z,26.70
2022-08-25T21:12:40.903Z,26.70
2022-08-25T21:15:12.685Z,26.60
2022-08-25T21:17:41.591Z,26.60
2022-08-25T21:20:12.199Z,26.60
2022-08-25T21:22:40.717Z,26.50
2022-08-25T21:25:10.901Z,26.50
2022-08-25T21:27:40.847Z,26.50
2022-08-25T21:30:13.819Z,26.50
2022-08-25T21:32:52.759Z,26.50
2022-08-25T21:35:22.474Z,26.50
2022-08-25T21:37:53.003Z,26.40
2022-08-25T21:40:22.906Z,26.40
2022-08-25T21:42:53.423Z,26.40
2022-08-25T21:45:22.179Z,26.40
2022-08-25T21:47:51.815Z,26.50
2022-08-25T21:50:21.151Z,26.60
2022-08-25T21:52:54.483Z,26.70
2022-08-25T21:55:25.201Z,26.60
2022-08-25T21:57:55.537Z,26.60
2022-08-25T22:00:28.266Z,26.60
2022-08-25T22:02:59.047Z,26.60
2022-08-25T22:05:28.010Z,26.60
2022-08-25T22:07:57.267Z,26.60
2022-08-25T22:10:25.748Z,26.60
2022-08-25T22:12:56.989Z,26.60
2022-08-25T22:15:25.433Z,26.60
2022-08-25T22:17:53.973Z,26.50
2022-08-25T22:20:22.412Z,26.50
2022-08-25T22:22:50.996Z,26.50
2022-08-25T22:25:19.559Z,26.50
2022-08-25T22:27:47.871Z,26.50
2022-08-25T22:30:29.425Z,26.50
2022-08-25T22:32:59.410Z,26.40
2022-08-25T22:35:28.841Z,26.40
2022-08-25T22:37:57.258Z,26.40
2022-08-25T22:40:27.341Z,26.40
2022-08-25T22:42:57.807Z,26.40
2022-08-25T22:45:28.709Z,26.40
2022-08-25T22:47:57.520Z,26.30
2022-08-25T22:50:27.519Z,26.30
2022-08-25T22:52:56.211Z,26.30
2022-08-25T22:55:24.513Z,26.30
2022-08-25T22:57:56.999Z,26.20
2022-08-25T23:00:25.530Z,26.20
2022-08-25T23:02:55.805Z,26.20
2022-08-25T23:05:24.561Z,26.30
2022-08-25T23:07:52.852Z,26.20
2022-08-25T23:10:22.802Z,26.20
2022-08-25T23:12:51.650Z,26.20
2022-08-25T23:15:20.165Z,26.20
2022-08-25T23:17:48.503Z,26.20
2022-08-25T23:20:36.525Z,26.20
2022-08-25T23:23:13.869Z,26.20
2022-08-25T23:25:42.546Z,26.20
2022-08-25T23:28:11.017Z,26.20
2022-08-25T23:30:40.206Z,26.20
2022-08-25T23:33:12.028Z,26.20
2022-08-25T23:35:42.142Z,26.20
2022-08-25T23:38:12.278Z,26.20
2022-08-25T23:40:44.026Z,26.20
2022-08-25T23:43:13.886Z,26.20
2022-08-25T23:45:42.359Z,26.20
2022-08-25T23:48:11.662Z,26.20
2022-08-25T23:50:45.757Z,26.20
2022-08-25T23:53:16.063Z,26.20
2022-08-25T23:55:52.869Z,26.20
2022-08-25T23:58:21.616Z,26.20
